createdAt,value
2019-06-04T12:21:15.742Z,24.35
2019-06-04T12:23:36.459Z,24.34
2019-06-04T12:26:04.918Z,24.40
2019-06-04T12:28:32.708Z,24.42
2019-06-04T12:31:00.534Z,24.44
2019-06-04T12:33:28.048Z,24.46
2019-06-04T12:35:56.640Z,24.45
2019-06-04T12:38:24.131Z,24.45
2019-06-04T12:40:51.678Z,24.47
2019-06-04T12:43:19.290Z,24.50
2019-06-04T12:45:47.609Z,24.52
2019-06-04T12:48:15.563Z,24.53
2019-06-04T12:50:43.122Z,24.56
2019-06-04T12:53:10.919Z,24.59
2019-06-04T12:55:38.729Z,24.61
2019-06-04T12:58:06.434Z,24.63
2019-06-04T13:00:34.223Z,24.65
2019-06-04T13:03:03.067Z,24.69
2019-06-04T13:05:30.749Z,24.72
2019-06-04T13:07:59.725Z,24.76
2019-06-04T13:10:33.197Z,24.79
2019-06-04T13:12:59.158Z,24.80
2019-06-04T13:15:26.804Z,24.82
2019-06-04T13:17:54.434Z,24.85
2019-06-04T13:20:29.888Z,24.88
2019-06-04T13:22:56.202Z,24.91
2019-06-04T13:25:21.216Z,24.93
2019-06-04T13:27:48.961Z,24.96
2019-06-04T13:30:40.299Z,24.97
2019-06-04T13:33:08.267Z,24.99
2019-06-04T13:35:35.923Z,25.02
2019-06-04T13:38:04.526Z,25.05
2019-06-04T13:40:32.179Z,25.08
2019-06-04T13:43:01.178Z,25.09
2019-06-04T13:45:28.959Z,25.12
2019-06-04T13:47:56.491Z,25.14
2019-06-04T13:50:24.009Z,25.15
2019-06-04T13:52:51.546Z,25.17
2019-06-04T13:55:19.091Z,25.18
2019-06-04T13:57:47.364Z,25.21
2019-06-04T14:00:15.329Z,25.24
2019-06-04T14:02:42.900Z,25.26
2019-06-04T14:05:10.806Z,25.28
2019-06-04T14:07:38.316Z,25.31
2019-06-04T14:10:07.448Z,25.33
2019-06-04T14:12:35.293Z,25.36
2019-06-04T14:15:03.748Z,25.39
2019-06-04T14:17:31.514Z,25.43
2019-06-04T14:19:59.047Z,25.50
2019-06-04T14:22:26.569Z,26.03
2019-06-04T14:25:11.705Z,26.84
2019-06-04T14:27:39.454Z,27.54
2019-06-04T14:30:07.510Z,28.04
2019-06-04T14:32:35.035Z,28.26
2019-06-04T14:35:02.653Z,28.38
2019-06-04T14:37:30.150Z,28.32
2019-06-04T14:40:17.506Z,28.12
2019-06-04T14:42:27.126Z,27.93
2019-06-04T14:44:54.659Z,27.83
2019-06-04T14:47:22.154Z,27.68
2019-06-04T14:49:49.802Z,27.46
2019-06-04T14:52:17.336Z,27.53
2019-06-04T14:54:44.836Z,27.69
2019-06-04T14:57:12.651Z,27.66
2019-06-04T14:59:40.285Z,27.50
2019-06-04T15:02:08.382Z,27.53
2019-06-04T15:04:35.992Z,27.51
2019-06-04T15:07:03.557Z,27.49
2019-06-04T15:09:31.186Z,27.20
2019-06-04T15:11:58.724Z,27.09
2019-06-04T15:14:26.232Z,26.95
2019-06-04T15:16:53.774Z,26.82
2019-06-04T15:19:21.322Z,26.78
2019-06-04T15:21:48.849Z,26.71
2019-06-04T15:24:16.873Z,26.72
2019-06-04T15:26:44.509Z,26.74
2019-06-04T15:29:13.141Z,26.74
2019-06-04T15:31:40.888Z,26.76
2019-06-04T15:34:08.573Z,26.76
2019-06-04T15:36:36.067Z,26.73
2019-06-04T15:39:04.709Z,26.70
2019-06-04T15:41:45.551Z,26.69
2019-06-04T15:44:02.100Z,26.69
2019-06-04T15:46:29.672Z,26.65
2019-06-04T15:48:57.211Z,26.57
2019-06-04T15:51:24.845Z,26.49
2019-06-04T15:53:52.330Z,26.45
2019-06-04T15:56:20.726Z,26.45
2019-06-04T15:58:48.536Z,26.47
2019-06-04T16:01:17.341Z,26.49
2019-06-04T16:03:50.327Z,26.46
2019-06-04T16:06:14.732Z,26.40
2019-06-04T16:08:42.445Z,26.36
2019-06-04T16:11:09.962Z,26.40
2019-06-04T16:13:37.550Z,26.46
2019-06-04T16:16:07.384Z,26.51
2019-06-04T16:18:34.818Z,26.52
2019-06-04T16:21:02.569Z,26.52
2019-06-04T16:23:30.501Z,26.52
2019-06-04T16:26:04.468Z,26.47
2019-06-04T16:28:35.077Z,26.45
2019-06-04T16:31:02.609Z,26.45
2019-06-04T16:33:30.143Z,26.48
2019-06-04T16:35:57.650Z,26.50
2019-06-04T16:38:29.104Z,26.56
2019-06-04T16:40:54.651Z,26.54
2019-06-04T16:43:25.585Z,26.48
2019-06-04T16:45:53.346Z,26.45
2019-06-04T16:48:21.668Z,26.49
2019-06-04T16:50:50.323Z,26.49
2019-06-04T16:53:18.802Z,26.48
2019-06-04T16:55:46.478Z,26.45
2019-06-04T16:58:14.162Z,26.44
2019-06-04T17:00:41.679Z,26.44
2019-06-04T17:03:09.192Z,26.44
2019-06-04T17:05:36.721Z,26.46
2019-06-04T17:08:04.372Z,26.52
2019-06-04T17:10:33.429Z,26.55
2019-06-04T17:13:03.069Z,26.57
2019-06-04T17:15:30.806Z,26.61
2019-06-04T17:17:58.426Z,26.67
2019-06-04T17:20:27.063Z,26.62
2019-06-04T17:22:54.753Z,26.57
2019-06-04T17:25:23.389Z,26.53
2019-06-04T17:27:51.092Z,26.51
2019-06-04T17:30:18.620Z,26.53
2019-06-04T17:32:46.137Z,26.55
2019-06-04T17:35:13.693Z,26.55
2019-06-04T17:37:41.183Z,26.47
2019-06-04T17:40:08.720Z,26.39
2019-06-04T17:42:36.250Z,26.34
2019-06-04T17:45:04.205Z,26.32
2019-06-04T17:47:32.327Z,26.31
2019-06-04T17:49:59.957Z,26.29
2019-06-04T17:52:28.305Z,26.28
2019-06-04T17:54:56.029Z,26.25
2019-06-04T17:57:24.473Z,26.23
2019-06-04T17:59:53.180Z,26.23
2019-06-04T18:02:20.979Z,26.21
2019-06-04T18:04:48.467Z,26.19
2019-06-04T18:07:16.031Z,26.17
2019-06-04T18:09:43.524Z,26.12
2019-06-04T18:12:11.068Z,26.12
2019-06-04T18:14:39.729Z,26.13
2019-06-04T18:17:07.604Z,26.12
2019-06-04T18:19:36.009Z,26.12
2019-06-04T18:22:03.650Z,26.12
2019-06-04T18:24:32.209Z,26.10
2019-06-04T18:26:59.860Z,26.06
2019-06-04T18:29:27.538Z,26.03
2019-06-04T18:31:55.247Z,25.99
2019-06-04T18:34:22.888Z,25.94
2019-06-04T18:36:50.488Z,25.88
2019-06-04T18:39:18.001Z,25.87
2019-06-04T18:41:45.549Z,25.83
2019-06-04T18:44:13.244Z,25.80
2019-06-04T18:46:40.790Z,25.78
2019-06-04T18:49:08.286Z,25.73
2019-06-04T18:51:37.263Z,25.71
2019-06-04T18:54:05.014Z,25.69
2019-06-04T18:56:33.760Z,25.67
2019-06-04T18:59:01.500Z,25.66
2019-06-04T19:01:30.047Z,25.64
2019-06-04T19:03:57.676Z,25.60
2019-06-04T19:06:25.282Z,25.57
2019-06-04T19:08:52.785Z,25.53
2019-06-04T19:11:20.331Z,25.50
2019-06-04T19:14:02.675Z,25.48
2019-06-04T19:16:23.365Z,25.45
2019-06-04T19:18:50.910Z,25.41
2019-06-04T19:21:18.574Z,25.36
2019-06-04T19:23:46.167Z,25.31
2019-06-04T19:26:13.669Z,25.25
2019-06-04T19:28:41.410Z,25.18
2019-06-04T19:31:09.091Z,25.13
2019-06-04T19:33:39.688Z,25.09
2019-06-04T19:36:07.204Z,25.03
2019-06-04T19:38:35.977Z,24.99
2019-06-04T19:41:03.839Z,24.93
2019-06-04T19:43:31.418Z,24.89
2019-06-04T19:45:58.924Z,24.85
2019-06-04T19:48:26.447Z,24.80
2019-06-04T19:50:54.045Z,24.75
2019-06-04T19:53:27.572Z,24.70
2019-06-04T19:56:01.078Z,24.65
2019-06-04T19:58:28.816Z,24.60
2019-06-04T20:00:56.452Z,24.58
2019-06-04T20:03:24.013Z,24.54
2019-06-04T20:05:55.853Z,24.51
2019-06-04T20:08:20.987Z,24.49
2019-06-04T20:10:52.463Z,24.44
2019-06-04T20:13:17.907Z,24.41
2019-06-04T20:15:45.789Z,24.40
2019-06-04T20:18:13.386Z,24.38
2019-06-04T20:20:40.890Z,24.32
2019-06-04T20:23:08.410Z,24.31
2019-06-04T20:25:36.034Z,24.28
2019-06-04T20:28:03.537Z,24.25
2019-06-04T20:30:31.027Z,24.22
2019-06-04T20:32:59.202Z,24.21
2019-06-04T20:35:27.132Z,24.17
2019-06-04T20:38:01.558Z,24.15
2019-06-04T20:40:24.081Z,24.13
2019-06-04T20:42:51.596Z,24.10
2019-06-04T20:45:19.183Z,24.09
2019-06-04T20:47:46.914Z,24.07
2019-06-04T20:50:14.817Z,24.06
2019-06-04T20:52:42.744Z,24.03
2019-06-04T20:55:10.382Z,24.02
2019-06-04T20:57:38.039Z,24.00
2019-06-04T21:00:05.610Z,23.99
2019-06-04T21:02:33.235Z,23.96
2019-06-04T21:05:00.724Z,23.96
2019-06-04T21:07:28.277Z,23.94
2019-06-04T21:09:55.812Z,23.94
2019-06-04T21:12:23.322Z,23.92
2019-06-04T21:14:51.581Z,23.90
2019-06-04T21:17:19.259Z,23.88
2019-06-04T21:19:48.220Z,23.87
2019-06-04T21:22:16.422Z,23.85
2019-06-04T21:24:45.193Z,23.84
2019-06-04T21:27:12.849Z,23.83
2019-06-04T21:29:40.493Z,23.83
2019-06-04T21:32:08.359Z,23.81
2019-06-04T21:34:35.862Z,23.80
2019-06-04T21:37:03.406Z,23.79
2019-06-04T21:39:30.927Z,23.78
2019-06-04T21:41:58.452Z,23.75
2019-06-04T21:44:25.987Z,23.75
2019-06-04T21:46:57.433Z,23.74
2019-06-04T21:49:23.024Z,23.74
2019-06-04T21:51:51.081Z,23.72
2019-06-04T21:54:19.873Z,23.70
2019-06-04T21:56:47.946Z,23.70
2019-06-04T21:59:16.842Z,23.69
2019-06-04T22:01:44.460Z,23.68
2019-06-04T22:04:12.002Z,23.66
2019-06-04T22:06:39.530Z,23.65
2019-06-04T22:09:09.979Z,23.64
2019-06-04T22:11:37.460Z,23.65
2019-06-04T22:14:05.046Z,23.64
2019-06-04T22:16:32.552Z,23.62
2019-06-04T22:19:00.874Z,23.63
2019-06-04T22:21:30.251Z,23.64
2019-06-04T22:23:58.871Z,23.65
2019-06-04T22:26:28.942Z,23.65
2019-06-04T22:28:56.291Z,23.63
2019-06-04T22:31:23.880Z,23.59
2019-06-04T22:33:52.816Z,23.58
2019-06-04T22:36:20.732Z,23.57
2019-06-04T22:38:48.603Z,23.56
2019-06-04T22:41:17.526Z,23.55
2019-06-04T22:43:45.035Z,23.52
2019-06-04T22:46:20.005Z,23.51
2019-06-04T22:48:41.983Z,23.51
2019-06-04T22:51:09.493Z,23.51
2019-06-04T22:53:37.064Z,23.50
2019-06-04T22:56:04.579Z,23.48
2019-06-04T22:58:32.178Z,23.49
2019-06-04T23:00:59.845Z,23.49
2019-06-04T23:03:27.469Z,23.48
2019-06-04T23:05:56.147Z,23.48
2019-06-04T23:08:24.050Z,23.48
2019-06-04T23:10:52.454Z,23.48
2019-06-04T23:13:20.975Z,23.49
2019-06-04T23:15:48.732Z,23.49
2019-06-04T23:18:16.282Z,23.49
2019-06-04T23:20:43.920Z,23.48
2019-06-04T23:23:11.416Z,23.49
2019-06-04T23:25:38.912Z,23.49
2019-06-04T23:28:06.437Z,23.48
2019-06-04T23:30:34.031Z,23.48
2019-06-04T23:33:02.534Z,23.49
2019-06-04T23:35:30.145Z,23.48
2019-06-04T23:37:58.838Z,23.49
2019-06-04T23:40:26.664Z,23.48
2019-06-04T23:42:55.678Z,23.44
2019-06-04T23:45:23.298Z,23.45
2019-06-04T23:47:50.839Z,23.46
2019-06-04T23:50:18.346Z,23.45
2019-06-04T23:52:45.989Z,23.45
2019-06-04T23:55:13.488Z,23.45
2019-06-04T23:57:41.011Z,23.45
